sensor_id;sensor_type;location;lat;lon;timestamp;temperature;humidity
32612;DHT22;19030;49.478;8.986;2022-09-06T00:00:30;15.90;99.90
32612;DHT22;19030;49.478;8.986;2022-09-06T00:02:31;15.90;99.90
32612;DHT22;19030;49.478;8.986;2022-09-06T00:04:32;15.90;99.90
32612;DHT22;19030;49.478;8.986;2022-09-06T00:06:33;15.80;99.90
32612;DHT22;19030;49.478;8.986;2022-09-06T00:08:34;15.80;99.90
32612;DHT22;19030;49.478;8.986;2022-09-06T00:10:34;15.80;99.90
32612;DHT22;19030;49.478;8.986;2022-09-06T00:12:37;15.80;99.90
32612;DHT22;19030;49.478;8.986;2022-09-06T00:14:37;15.80;99.90
32612;DHT22;19030;49.478;8.986;2022-09-06T00:16:38;15.80;99.90
32612;DHT22;19030;49.478;8.986;2022-09-06T00:18:40;15.70;99.90
32612;DHT22;19030;49.478;8.986;2022-09-06T00:20:41;15.70;99.90
32612;DHT22;19030;49.478;8.986;2022-09-06T00:22:41;15.70;99.90
32612;DHT22;19030;49.478;8.986;2022-09-06T00:24:42;15.70;99.90
32612;DHT22;19030;49.478;8.986;2022-09-06T00:26:42;15.70;99.90
32612;DHT22;19030;49.478;8.986;2022-09-06T00:28:43;15.70;99.90
32612;DHT22;19030;49.478;8.986;2022-09-06T00:30:44;15.70;99.90
32612;DHT22;19030;49.478;8.986;2022-09-06T00:32:45;15.70;99.90
32612;DHT22;19030;49.478;8.986;2022-09-06T00:34:45;15.60;99.90
32612;DHT22;19030;49.478;8.986;2022-09-06T00:36:46;15.60;99.90
32612;DHT22;19030;49.478;8.986;2022-09-06T00:38:46;15.60;99.90
32612;DHT22;19030;49.478;8.986;2022-09-06T00:40:47;15.60;99.90
32612;DHT22;19030;49.478;8.986;2022-09-06T00:42:47;15.60;99.90
32612;DHT22;19030;49.478;8.986;2022-09-06T00:44:49;15.60;99.90
32612;DHT22;19030;49.478;8.986;2022-09-06T00:46:51;15.60;99.90
32612;DHT22;19030;49.478;8.986;2022-09-06T00:48:55;15.60;99.90
32612;DHT22;19030;49.478;8.986;2022-09-06T00:50:59;15.60;99.90
32612;DHT22;19030;49.478;8.986;2022-09-06T00:53:01;15.50;99.90
32612;DHT22;19030;49.478;8.986;2022-09-06T00:55:02;15.60;99.90
32612;DHT22;19030;49.478;8.986;2022-09-06T00:57:03;15.60;99.90
32612;DHT22;19030;49.478;8.986;2022-09-06T00:59:04;15.60;99.90
32612;DHT22;19030;49.478;8.986;2022-09-06T01:01:05;15.50;99.90
32612;DHT22;19030;49.478;8.986;2022-09-06T01:03:09;15.50;99.90
32612;DHT22;19030;49.478;8.986;2022-09-06T01:05:10;15.50;99.90
32612;DHT22;19030;49.478;8.986;2022-09-06T01:13:55;15.50;99.90
32612;DHT22;19030;49.478;8.986;2022-09-06T01:21:35;15.50;99.90
32612;DHT22;19030;49.478;8.986;2022-09-06T01:23:47;15.50;99.90
32612;DHT22;19030;49.478;8.986;2022-09-06T01:30:33;15.50;99.90
32612;DHT22;19030;49.478;8.986;2022-09-06T01:35:02;15.50;99.90
32612;DHT22;19030;49.478;8.986;2022-09-06T01:37:13;15.40;99.90
32612;DHT22;19030;49.478;8.986;2022-09-06T01:39:27;15.40;99.90
32612;DHT22;19030;49.478;8.986;2022-09-06T01:41:28;15.30;99.90
32612;DHT22;19030;49.478;8.986;2022-09-06T01:43:34;15.30;99.90
32612;DHT22;19030;49.478;8.986;2022-09-06T01:45:59;15.20;99.90
32612;DHT22;19030;49.478;8.986;2022-09-06T01:50:26;15.20;99.90
32612;DHT22;19030;49.478;8.986;2022-09-06T01:52:52;15.20;99.90
32612;DHT22;19030;49.478;8.986;2022-09-06T02:00:08;15.30;99.90
32612;DHT22;19030;49.478;8.986;2022-09-06T02:02:34;15.30;99.90
32612;DHT22;19030;49.478;8.986;2022-09-06T02:04:47;15.30;99.90
32612;DHT22;19030;49.478;8.986;2022-09-06T02:06:58;15.30;99.90
32612;DHT22;19030;49.478;8.986;2022-09-06T02:09:09;15.30;99.90
32612;DHT22;19030;49.478;8.986;2022-09-06T02:11:13;15.30;99.90
32612;DHT22;19030;49.478;8.986;2022-09-06T02:13:14;15.40;99.90
32612;DHT22;19030;49.478;8.986;2022-09-06T02:15:28;15.50;99.90
32612;DHT22;19030;49.478;8.986;2022-09-06T02:17:33;15.60;99.90
32612;DHT22;19030;49.478;8.986;2022-09-06T02:19:48;15.70;99.90
32612;DHT22;19030;49.478;8.986;2022-09-06T02:21:53;15.70;99.90
32612;DHT22;19030;49.478;8.986;2022-09-06T02:24:00;15.70;99.90
32612;DHT22;19030;49.478;8.986;2022-09-06T02:26:26;15.70;99.90
32612;DHT22;19030;49.478;8.986;2022-09-06T02:28:26;15.70;99.90
32612;DHT22;19030;49.478;8.986;2022-09-06T02:30:27;15.70;99.90
32612;DHT22;19030;49.478;8.986;2022-09-06T02:32:33;15.80;99.90
32612;DHT22;19030;49.478;8.986;2022-09-06T02:34:37;15.80;99.90
32612;DHT22;19030;49.478;8.986;2022-09-06T02:36:39;15.90;99.90
32612;DHT22;19030;49.478;8.986;2022-09-06T02:38:40;15.90;99.90
32612;DHT22;19030;49.478;8.986;2022-09-06T02:40:42;15.90;99.90
32612;DHT22;19030;49.478;8.986;2022-09-06T02:42:43;15.90;99.90
32612;DHT22;19030;49.478;8.986;2022-09-06T02:44:44;15.90;99.90
32612;DHT22;19030;49.478;8.986;2022-09-06T02:46:44;15.90;99.90
32612;DHT22;19030;49.478;8.986;2022-09-06T02:48:45;15.90;99.90
32612;DHT22;19030;49.478;8.986;2022-09-06T02:50:46;16.00;99.90
32612;DHT22;19030;49.478;8.986;2022-09-06T02:53:06;16.00;99.90
32612;DHT22;19030;49.478;8.986;2022-09-06T02:55:07;16.00;99.90
32612;DHT22;19030;49.478;8.986;2022-09-06T02:57:07;16.10;99.90
32612;DHT22;19030;49.478;8.986;2022-09-06T02:59:08;16.10;99.90
32612;DHT22;19030;49.478;8.986;2022-09-06T03:01:09;16.10;99.90
32612;DHT22;19030;49.478;8.986;2022-09-06T03:03:10;16.20;99.90
32612;DHT22;19030;49.478;8.986;2022-09-06T03:05:10;16.10;99.90
32612;DHT22;19030;49.478;8.986;2022-09-06T03:07:11;16.20;99.90
32612;DHT22;19030;49.478;8.986;2022-09-06T03:09:11;16.20;99.90
32612;DHT22;19030;49.478;8.986;2022-09-06T03:11:12;16.20;99.90
32612;DHT22;19030;49.478;8.986;2022-09-06T03:13:13;16.20;99.90
32612;DHT22;19030;49.478;8.986;2022-09-06T03:15:15;16.30;99.90
32612;DHT22;19030;49.478;8.986;2022-09-06T03:17:16;16.30;99.90
32612;DHT22;19030;49.478;8.986;2022-09-06T03:19:16;16.30;99.90
32612;DHT22;19030;49.478;8.986;2022-09-06T03:21:17;16.30;99.90
32612;DHT22;19030;49.478;8.986;2022-09-06T03:23:18;16.30;99.90
32612;DHT22;19030;49.478;8.986;2022-09-06T03:25:19;16.30;99.90
32612;DHT22;19030;49.478;8.986;2022-09-06T03:27:21;16.40;99.90
32612;DHT22;19030;49.478;8.986;2022-09-06T03:29:21;16.40;99.90
32612;DHT22;19030;49.478;8.986;2022-09-06T03:31:22;16.40;99.90
32612;DHT22;19030;49.478;8.986;2022-09-06T03:33:22;16.40;99.90
32612;DHT22;19030;49.478;8.986;2022-09-06T03:35:23;16.30;99.90
32612;DHT22;19030;49.478;8.986;2022-09-06T03:37:23;16.20;99.90
32612;DHT22;19030;49.478;8.986;2022-09-06T03:39:24;16.20;99.90
32612;DHT22;19030;49.478;8.986;2022-09-06T03:41:24;16.20;99.90
32612;DHT22;19030;49.478;8.986;2022-09-06T03:43:27;16.20;99.90
32612;DHT22;19030;49.478;8.986;2022-09-06T03:45:27;16.20;99.90
32612;DHT22;19030;49.478;8.986;2022-09-06T03:47:28;16.20;99.90
32612;DHT22;19030;49.478;8.986;2022-09-06T03:49:28;16.10;99.90
32612;DHT22;19030;49.478;8.986;2022-09-06T03:51:29;16.10;99.90
32612;DHT22;19030;49.478;8.986;2022-09-06T03:53:29;16.00;99.90
32612;DHT22;19030;49.478;8.986;2022-09-06T03:55:30;16.00;99.90
32612;DHT22;19030;49.478;8.986;2022-09-06T03:57:30;16.00;99.90
32612;DHT22;19030;49.478;8.986;2022-09-06T03:59:31;15.90;99.90
32612;DHT22;19030;49.478;8.986;2022-09-06T04:01:32;15.90;99.90
32612;DHT22;19030;49.478;8.986;2022-09-06T04:03:33;15.80;99.90
32612;DHT22;19030;49.478;8.986;2022-09-06T04:05:34;15.80;99.90
32612;DHT22;19030;49.478;8.986;2022-09-06T04:07:35;15.80;99.90
32612;DHT22;19030;49.478;8.986;2022-09-06T04:09:37;15.70;99.90
32612;DHT22;19030;49.478;8.986;2022-09-06T04:11:37;15.60;99.90
32612;DHT22;19030;49.478;8.986;2022-09-06T04:13:38;15.60;99.90
32612;DHT22;19030;49.478;8.986;2022-09-06T04:15:38;15.60;99.90
32612;DHT22;19030;49.478;8.986;2022-09-06T04:17:43;15.60;99.90
32612;DHT22;19030;49.478;8.986;2022-09-06T04:19:45;15.60;99.90
32612;DHT22;19030;49.478;8.986;2022-09-06T04:21:45;15.50;99.90
32612;DHT22;19030;49.478;8.986;2022-09-06T04:23:46;15.50;99.90
32612;DHT22;19030;49.478;8.986;2022-09-06T04:25:49;15.40;99.90
32612;DHT22;19030;49.478;8.986;2022-09-06T04:27:50;15.40;99.90
32612;DHT22;19030;49.478;8.986;2022-09-06T04:29:50;15.40;99.90
32612;DHT22;19030;49.478;8.986;2022-09-06T04:31:51;15.30;99.90
32612;DHT22;19030;49.478;8.986;2022-09-06T04:33:51;15.30;99.90
32612;DHT22;19030;49.478;8.986;2022-09-06T04:35:56;15.30;99.90
32612;DHT22;19030;49.478;8.986;2022-09-06T04:38:00;15.30;99.90
32612;DHT22;19030;49.478;8.986;2022-09-06T04:40:01;15.20;99.90
32612;DHT22;19030;49.478;8.986;2022-09-06T04:42:02;15.20;99.90
32612;DHT22;19030;49.478;8.986;2022-09-06T04:44:03;15.20;99.90
32612;DHT22;19030;49.478;8.986;2022-09-06T04:46:05;15.20;99.90
32612;DHT22;19030;49.478;8.986;2022-09-06T04:48:07;15.20;99.90
32612;DHT22;19030;49.478;8.986;2022-09-06T04:50:08;15.10;99.90
32612;DHT22;19030;49.478;8.986;2022-09-06T04:52:09;15.10;99.90
32612;DHT22;19030;49.478;8.986;2022-09-06T04:54:10;15.10;99.90
32612;DHT22;19030;49.478;8.986;2022-09-06T04:56:16;15.10;99.90
32612;DHT22;19030;49.478;8.986;2022-09-06T04:58:17;15.10;99.90
32612;DHT22;19030;49.478;8.986;2022-09-06T05:00:18;15.10;99.90
32612;DHT22;19030;49.478;8.986;2022-09-06T05:02:18;15.10;99.90
32612;DHT22;19030;49.478;8.986;2022-09-06T05:04:19;15.20;99.90
32612;DHT22;19030;49.478;8.986;2022-09-06T05:06:22;15.10;99.90
32612;DHT22;19030;49.478;8.986;2022-09-06T05:08:22;15.10;99.90
32612;DHT22;19030;49.478;8.986;2022-09-06T05:10:23;15.20;99.90
32612;DHT22;19030;49.478;8.986;2022-09-06T05:12:24;15.20;99.90
32612;DHT22;19030;49.478;8.986;2022-09-06T05:14:25;15.20;99.90
32612;DHT22;19030;49.478;8.986;2022-09-06T05:16:26;15.20;99.90
32612;DHT22;19030;49.478;8.986;2022-09-06T05:18:27;15.20;99.90
32612;DHT22;19030;49.478;8.986;2022-09-06T05:20:27;15.20;99.90
32612;DHT22;19030;49.478;8.986;2022-09-06T05:22:28;15.20;99.90
32612;DHT22;19030;49.478;8.986;2022-09-06T05:24:29;15.20;99.90
32612;DHT22;19030;49.478;8.986;2022-09-06T05:26:29;15.20;99.90
32612;DHT22;19030;49.478;8.986;2022-09-06T05:28:30;15.20;99.90
32612;DHT22;19030;49.478;8.986;2022-09-06T05:30:30;15.20;99.90
32612;DHT22;19030;49.478;8.986;2022-09-06T05:32:31;15.30;99.90
32612;DHT22;19030;49.478;8.986;2022-09-06T05:34:31;15.30;99.90
32612;DHT22;19030;49.478;8.986;2022-09-06T05:36:32;15.40;99.90
32612;DHT22;19030;49.478;8.986;2022-09-06T05:38:33;15.40;99.90
32612;DHT22;19030;49.478;8.986;2022-09-06T05:40:33;15.50;99.90
32612;DHT22;19030;49.478;8.986;2022-09-06T05:42:34;15.70;99.90
32612;DHT22;19030;49.478;8.986;2022-09-06T05:44:35;15.80;99.90
32612;DHT22;19030;49.478;8.986;2022-09-06T05:46:43;15.90;99.90
32612;DHT22;19030;49.478;8.986;2022-09-06T05:48:52;15.90;99.90
32612;DHT22;19030;49.478;8.986;2022-09-06T05:51:02;16.00;99.90
32612;DHT22;19030;49.478;8.986;2022-09-06T05:53:03;16.00;99.90
32612;DHT22;19030;49.478;8.986;2022-09-06T05:55:04;16.10;99.90
32612;DHT22;19030;49.478;8.986;2022-09-06T05:57:05;16.20;99.90
32612;DHT22;19030;49.478;8.986;2022-09-06T05:59:05;16.40;99.90
32612;DHT22;19030;49.478;8.986;2022-09-06T06:01:16;16.50;99.90
32612;DHT22;19030;49.478;8.986;2022-09-06T06:03:17;16.90;99.90
32612;DHT22;19030;49.478;8.986;2022-09-06T06:05:17;17.70;99.90
32612;DHT22;19030;49.478;8.986;2022-09-06T06:07:18;18.60;99.90
32612;DHT22;19030;49.478;8.986;2022-09-06T06:09:19;19.20;99.90
32612;DHT22;19030;49.478;8.986;2022-09-06T06:11:19;19.70;99.90
32612;DHT22;19030;49.478;8.986;2022-09-06T06:13:20;20.00;99.90
32612;DHT22;19030;49.478;8.986;2022-09-06T06:15:20;20.30;99.90
32612;DHT22;19030;49.478;8.986;2022-09-06T06:17:21;20.20;99.90
32612;DHT22;19030;49.478;8.986;2022-09-06T06:19:22;19.90;99.90
32612;DHT22;19030;49.478;8.986;2022-09-06T06:21:25;19.80;99.90
32612;DHT22;19030;49.478;8.986;2022-09-06T06:23:26;19.70;99.90
32612;DHT22;19030;49.478;8.986;2022-09-06T06:25:27;19.50;99.90
32612;DHT22;19030;49.478;8.986;2022-09-06T06:27:27;19.40;99.90
32612;DHT22;19030;49.478;8.986;2022-09-06T06:29:28;19.30;99.90
32612;DHT22;19030;49.478;8.986;2022-09-06T06:31:30;19.20;99.90
32612;DHT22;19030;49.478;8.986;2022-09-06T06:33:31;19.00;99.90
32612;DHT22;19030;49.478;8.986;2022-09-06T06:35:31;18.80;99.90
32612;DHT22;19030;49.478;8.986;2022-09-06T06:37:32;18.60;99.90
32612;DHT22;19030;49.478;8.986;2022-09-06T06:39:33;18.40;99.90
32612;DHT22;19030;49.478;8.986;2022-09-06T06:41:34;18.20;99.90
32612;DHT22;19030;49.478;8.986;2022-09-06T06:43:35;18.10;99.90
32612;DHT22;19030;49.478;8.986;2022-09-06T06:45:36;18.10;99.90
32612;DHT22;19030;49.478;8.986;2022-09-06T06:47:37;18.10;99.90
32612;DHT22;19030;49.478;8.986;2022-09-06T06:49:38;18.10;99.90
32612;DHT22;19030;49.478;8.986;2022-09-06T06:51:38;18.10;99.90
32612;DHT22;19030;49.478;8.986;2022-09-06T06:53:39;18.10;99.90
32612;DHT22;19030;49.478;8.986;2022-09-06T06:55:44;18.20;99.90
32612;DHT22;19030;49.478;8.986;2022-09-06T06:57:46;18.30;99.90
32612;DHT22;19030;49.478;8.986;2022-09-06T06:59:46;18.30;99.90
32612;DHT22;19030;49.478;8.986;2022-09-06T07:01:47;18.30;99.90
32612;DHT22;19030;49.478;8.986;2022-09-06T07:03:50;18.40;99.90
32612;DHT22;19030;49.478;8.986;2022-09-06T07:05:50;18.50;99.90
32612;DHT22;19030;49.478;8.986;2022-09-06T07:07:51;18.60;99.90
32612;DHT22;19030;49.478;8.986;2022-09-06T07:09:52;18.70;99.90
32612;DHT22;19030;49.478;8.986;2022-09-06T07:11:52;18.80;99.90
32612;DHT22;19030;49.478;8.986;2022-09-06T07:13:53;19.00;99.90
32612;DHT22;19030;49.478;8.986;2022-09-06T07:16:16;19.20;99.90
32612;DHT22;19030;49.478;8.986;2022-09-06T07:18:17;19.60;99.90
32612;DHT22;19030;49.478;8.986;2022-09-06T07:20:18;19.80;99.90
32612;DHT22;19030;49.478;8.986;2022-09-06T07:22:19;20.00;99.90
32612;DHT22;19030;49.478;8.986;2022-09-06T07:24:20;20.10;99.90
32612;DHT22;19030;49.478;8.986;2022-09-06T07:26:26;20.20;99.90
32612;DHT22;19030;49.478;8.986;2022-09-06T07:28:27;20.30;99.90
32612;DHT22;19030;49.478;8.986;2022-09-06T07:30:29;20.30;99.90
32612;DHT22;19030;49.478;8.986;2022-09-06T07:32:33;20.50;99.90
32612;DHT22;19030;49.478;8.986;2022-09-06T07:34:34;20.60;99.90
32612;DHT22;19030;49.478;8.986;2022-09-06T07:36:37;20.80;99.90
32612;DHT22;19030;49.478;8.986;2022-09-06T07:38:37;20.90;99.50
32612;DHT22;19030;49.478;8.986;2022-09-06T07:40:38;20.90;99.30
32612;DHT22;19030;49.478;8.986;2022-09-06T07:42:41;20.80;99.40
32612;DHT22;19030;49.478;8.986;2022-09-06T07:44:42;20.70;99.70
32612;DHT22;19030;49.478;8.986;2022-09-06T07:46:43;20.80;99.90
32612;DHT22;19030;49.478;8.986;2022-09-06T07:48:44;21.00;99.20
32612;DHT22;19030;49.478;8.986;2022-09-06T07:50:46;21.30;98.40
32612;DHT22;19030;49.478;8.986;2022-09-06T07:52:47;21.60;97.50
32612;DHT22;19030;49.478;8.986;2022-09-06T07:54:48;21.80;97.10
32612;DHT22;19030;49.478;8.986;2022-09-06T07:56:48;22.00;96.00
32612;DHT22;19030;49.478;8.986;2022-09-06T07:58:50;22.20;95.60
32612;DHT22;19030;49.478;8.986;2022-09-06T08:00:51;22.20;95.60
32612;DHT22;19030;49.478;8.986;2022-09-06T08:02:51;22.20;95.50
32612;DHT22;19030;49.478;8.986;2022-09-06T08:04:52;22.30;94.90
32612;DHT22;19030;49.478;8.986;2022-09-06T08:06:53;22.20;94.90
32612;DHT22;19030;49.478;8.986;2022-09-06T08:08:56;22.40;95.10
32612;DHT22;19030;49.478;8.986;2022-09-06T08:10:57;22.50;94.60
32612;DHT22;19030;49.478;8.986;2022-09-06T08:12:58;22.60;94.50
32612;DHT22;19030;49.478;8.986;2022-09-06T08:14:58;22.70;94.20
32612;DHT22;19030;49.478;8.986;2022-09-06T08:16:59;22.70;93.70
32612;DHT22;19030;49.478;8.986;2022-09-06T08:19:02;22.70;93.90
32612;DHT22;19030;49.478;8.986;2022-09-06T08:21:13;22.80;93.80
32612;DHT22;19030;49.478;8.986;2022-09-06T08:23:14;22.80;93.90
32612;DHT22;19030;49.478;8.986;2022-09-06T08:25:15;22.90;93.70
32612;DHT22;19030;49.478;8.986;2022-09-06T08:27:15;22.90;93.20
32612;DHT22;19030;49.478;8.986;2022-09-06T08:29:16;22.90;92.70
32612;DHT22;19030;49.478;8.986;2022-09-06T08:31:19;23.00;92.60
32612;DHT22;19030;49.478;8.986;2022-09-06T08:33:19;23.20;93.10
32612;DHT22;19030;49.478;8.986;2022-09-06T08:35:21;23.90;91.50
32612;DHT22;19030;49.478;8.986;2022-09-06T08:37:21;25.00;89.20
32612;DHT22;19030;49.478;8.986;2022-09-06T08:39:22;26.40;82.30
32612;DHT22;19030;49.478;8.986;2022-09-06T08:41:45;27.90;74.10
32612;DHT22;19030;49.478;8.986;2022-09-06T08:43:52;29.50;66.20
32612;DHT22;19030;49.478;8.986;2022-09-06T08:45:57;31.00;59.30
32612;DHT22;19030;49.478;8.986;2022-09-06T08:47:57;31.90;56.10
32612;DHT22;19030;49.478;8.986;2022-09-06T08:50:04;33.20;52.30
32612;DHT22;19030;49.478;8.986;2022-09-06T08:54:31;36.20;44.00
32612;DHT22;19030;49.478;8.986;2022-09-06T08:56:41;36.80;41.90
32612;DHT22;19030;49.478;8.986;2022-09-06T08:59:13;37.50;40.10
32612;DHT22;19030;49.478;8.986;2022-09-06T09:01:18;38.30;37.70
32612;DHT22;19030;49.478;8.986;2022-09-06T09:03:35;39.10;36.50
32612;DHT22;19030;49.478;8.986;2022-09-06T09:05:37;39.30;35.50
32612;DHT22;19030;49.478;8.986;2022-09-06T09:07:41;39.50;34.90
32612;DHT22;19030;49.478;8.986;2022-09-06T09:09:43;39.30;35.40
32612;DHT22;19030;49.478;8.986;2022-09-06T09:11:48;39.70;34.70
32612;DHT22;19030;49.478;8.986;2022-09-06T09:14:04;40.00;34.30
32612;DHT22;19030;49.478;8.986;2022-09-06T09:16:05;40.50;33.80
32612;DHT22;19030;49.478;8.986;2022-09-06T09:18:06;41.20;32.40
32612;DHT22;19030;49.478;8.986;2022-09-06T09:20:07;41.50;31.30
32612;DHT22;19030;49.478;8.986;2022-09-06T09:22:09;41.60;30.60
32612;DHT22;19030;49.478;8.986;2022-09-06T09:24:12;41.40;31.20
32612;DHT22;19030;49.478;8.986;2022-09-06T09:26:14;41.60;31.70
32612;DHT22;19030;49.478;8.986;2022-09-06T09:28:22;42.20;30.00
32612;DHT22;19030;49.478;8.986;2022-09-06T09:30:43;41.90;30.20
32612;DHT22;19030;49.478;8.986;2022-09-06T09:32:45;42.20;30.10
32612;DHT22;19030;49.478;8.986;2022-09-06T09:34:45;42.50;29.50
32612;DHT22;19030;49.478;8.986;2022-09-06T09:36:46;42.60;29.60
32612;DHT22;19030;49.478;8.986;2022-09-06T09:38:47;42.70;29.60
32612;DHT22;19030;49.478;8.986;2022-09-06T09:40:53;43.10;29.50
32612;DHT22;19030;49.478;8.986;2022-09-06T09:43:06;43.20;28.90
32612;DHT22;19030;49.478;8.986;2022-09-06T09:45:27;43.60;28.50
32612;DHT22;19030;49.478;8.986;2022-09-06T09:47:31;43.50;28.60
32612;DHT22;19030;49.478;8.986;2022-09-06T09:49:31;43.50;28.70
32612;DHT22;19030;49.478;8.986;2022-09-06T09:53:49;44.00;28.30
32612;DHT22;19030;49.478;8.986;2022-09-06T09:55:57;43.60;28.30
32612;DHT22;19030;49.478;8.986;2022-09-06T09:57:58;42.80;29.10
32612;DHT22;19030;49.478;8.986;2022-09-06T09:59:59;42.80;29.30
32612;DHT22;19030;49.478;8.986;2022-09-06T10:02:29;42.70;29.20
32612;DHT22;19030;49.478;8.986;2022-09-06T10:04:42;42.60;29.20
32612;DHT22;19030;49.478;8.986;2022-09-06T10:06:43;42.20;29.60
32612;DHT22;19030;49.478;8.986;2022-09-06T10:08:44;42.10;30.20
32612;DHT22;19030;49.478;8.986;2022-09-06T10:10:46;42.10;29.60
32612;DHT22;19030;49.478;8.986;2022-09-06T10:12:47;41.70;30.00
32612;DHT22;19030;49.478;8.986;2022-09-06T10:14:48;41.70;30.20
32612;DHT22;19030;49.478;8.986;2022-09-06T10:16:49;41.80;29.80
32612;DHT22;19030;49.478;8.986;2022-09-06T10:18:51;41.90;30.30
32612;DHT22;19030;49.478;8.986;2022-09-06T10:21:13;41.90;29.90
32612;DHT22;19030;49.478;8.986;2022-09-06T10:23:47;41.60;30.00
32612;DHT22;19030;49.478;8.986;2022-09-06T10:28:33;40.80;30.90
32612;DHT22;19030;49.478;8.986;2022-09-06T10:30:45;40.80;31.20
32612;DHT22;19030;49.478;8.986;2022-09-06T10:33:30;40.90;31.00
32612;DHT22;19030;49.478;8.986;2022-09-06T10:35:36;40.90;30.90
32612;DHT22;19030;49.478;8.986;2022-09-06T10:40:16;41.00;30.70
32612;DHT22;19030;49.478;8.986;2022-09-06T10:45:03;38.60;33.80
32612;DHT22;19030;49.478;8.986;2022-09-06T10:47:12;36.90;36.10
32612;DHT22;19030;49.478;8.986;2022-09-06T10:49:17;35.90;37.70
32612;DHT22;19030;49.478;8.986;2022-09-06T10:51:45;35.90;38.70
32612;DHT22;19030;49.478;8.986;2022-09-06T10:54:08;36.20;38.30
32612;DHT22;19030;49.478;8.986;2022-09-06T10:58:36;36.20;38.30
32612;DHT22;19030;49.478;8.986;2022-09-06T11:00:43;36.10;38.00
32612;DHT22;19030;49.478;8.986;2022-09-06T11:03:10;35.90;38.70
32612;DHT22;19030;49.478;8.986;2022-09-06T11:05:29;36.00;38.60
32612;DHT22;19030;49.478;8.986;2022-09-06T11:07:36;35.80;38.90
32612;DHT22;19030;49.478;8.986;2022-09-06T11:09:42;35.50;39.30
32612;DHT22;19030;49.478;8.986;2022-09-06T11:14:11;35.00;40.50
32612;DHT22;19030;49.478;8.986;2022-09-06T11:18:53;34.50;41.10
32612;DHT22;19030;49.478;8.986;2022-09-06T11:21:26;35.00;40.50
32612;DHT22;19030;49.478;8.986;2022-09-06T11:23:51;35.00;40.00
32612;DHT22;19030;49.478;8.986;2022-09-06T11:28:13;34.20;41.10
32612;DHT22;19030;49.478;8.986;2022-09-06T11:30:16;34.30;41.10
32612;DHT22;19030;49.478;8.986;2022-09-06T11:34:36;34.50;40.80
32612;DHT22;19030;49.478;8.986;2022-09-06T11:37:02;34.30;41.40
32612;DHT22;19030;49.478;8.986;2022-09-06T11:39:06;34.00;41.20
32612;DHT22;19030;49.478;8.986;2022-09-06T11:41:15;34.00;41.60
32612;DHT22;19030;49.478;8.986;2022-09-06T11:43:49;33.60;41.70
32612;DHT22;19030;49.478;8.986;2022-09-06T11:45:51;33.30;42.30
32612;DHT22;19030;49.478;8.986;2022-09-06T11:47:52;33.20;42.40
32612;DHT22;19030;49.478;8.986;2022-09-06T11:49:53;33.00;42.70
32612;DHT22;19030;49.478;8.986;2022-09-06T11:51:53;32.80;43.10
32612;DHT22;19030;49.478;8.986;2022-09-06T11:58:01;33.70;41.90
32612;DHT22;19030;49.478;8.986;2022-09-06T12:00:03;33.80;41.20
32612;DHT22;19030;49.478;8.986;2022-09-06T12:07:09;34.10;40.70
32612;DHT22;19030;49.478;8.986;2022-09-06T12:09:35;34.30;40.20
32612;DHT22;19030;49.478;8.986;2022-09-06T12:11:37;34.40;40.10
32612;DHT22;19030;49.478;8.986;2022-09-06T12:13:51;34.50;39.50
32612;DHT22;19030;49.478;8.986;2022-09-06T12:15:53;34.80;39.10
32612;DHT22;19030;49.478;8.986;2022-09-06T12:17:55;34.90;38.90
32612;DHT22;19030;49.478;8.986;2022-09-06T12:20:00;34.80;39.10
32612;DHT22;19030;49.478;8.986;2022-09-06T12:27:07;34.40;38.40
32612;DHT22;19030;49.478;8.986;2022-09-06T12:29:09;34.00;39.10
32612;DHT22;19030;49.478;8.986;2022-09-06T12:33:28;34.20;38.80
32612;DHT22;19030;49.478;8.986;2022-09-06T12:35:29;34.30;38.80
32612;DHT22;19030;49.478;8.986;2022-09-06T12:37:37;34.40;38.40
32612;DHT22;19030;49.478;8.986;2022-09-06T12:39:58;34.50;37.80
32612;DHT22;19030;49.478;8.986;2022-09-06T12:42:04;34.30;38.20
32612;DHT22;19030;49.478;8.986;2022-09-06T12:44:06;34.20;38.30
32612;DHT22;19030;49.478;8.986;2022-09-06T12:46:06;34.10;38.80
32612;DHT22;19030;49.478;8.986;2022-09-06T12:48:12;34.20;38.90
32612;DHT22;19030;49.478;8.986;2022-09-06T12:50:24;34.10;38.40
32612;DHT22;19030;49.478;8.986;2022-09-06T12:52:25;34.40;38.30
32612;DHT22;19030;49.478;8.986;2022-09-06T12:54:26;34.70;37.30
32612;DHT22;19030;49.478;8.986;2022-09-06T12:56:30;34.40;37.40
32612;DHT22;19030;49.478;8.986;2022-09-06T12:58:35;34.60;37.50
32612;DHT22;19030;49.478;8.986;2022-09-06T13:00:43;34.40;37.40
32612;DHT22;19030;49.478;8.986;2022-09-06T13:05:04;34.60;38.10
32612;DHT22;19030;49.478;8.986;2022-09-06T13:07:09;34.50;37.60
32612;DHT22;19030;49.478;8.986;2022-09-06T13:09:13;34.70;37.30
32612;DHT22;19030;49.478;8.986;2022-09-06T13:11:21;35.10;37.70
32612;DHT22;19030;49.478;8.986;2022-09-06T13:13:24;35.30;37.40
32612;DHT22;19030;49.478;8.986;2022-09-06T13:15:28;35.40;37.30
32612;DHT22;19030;49.478;8.986;2022-09-06T13:17:30;35.20;36.70
32612;DHT22;19030;49.478;8.986;2022-09-06T13:19:40;35.20;36.70
32612;DHT22;19030;49.478;8.986;2022-09-06T13:21:43;35.00;36.40
32612;DHT22;19030;49.478;8.986;2022-09-06T13:23:48;34.80;36.90
32612;DHT22;19030;49.478;8.986;2022-09-06T13:25:52;34.80;36.90
32612;DHT22;19030;49.478;8.986;2022-09-06T13:27:54;34.90;37.40
32612;DHT22;19030;49.478;8.986;2022-09-06T13:32:02;35.30;36.90
32612;DHT22;19030;49.478;8.986;2022-09-06T13:34:04;35.20;36.30
32612;DHT22;19030;49.478;8.986;2022-09-06T13:40:42;35.10;36.60
32612;DHT22;19030;49.478;8.986;2022-09-06T13:42:44;35.10;35.40
32612;DHT22;19030;49.478;8.986;2022-09-06T13:44:44;34.90;36.20
32612;DHT22;19030;49.478;8.986;2022-09-06T13:46:45;35.00;35.40
32612;DHT22;19030;49.478;8.986;2022-09-06T13:48:46;34.90;35.70
32612;DHT22;19030;49.478;8.986;2022-09-06T13:50:46;34.80;35.50
32612;DHT22;19030;49.478;8.986;2022-09-06T13:52:47;35.00;35.30
32612;DHT22;19030;49.478;8.986;2022-09-06T13:54:48;35.60;34.90
32612;DHT22;19030;49.478;8.986;2022-09-06T13:56:49;35.90;34.00
32612;DHT22;19030;49.478;8.986;2022-09-06T13:58:49;35.80;34.10
32612;DHT22;19030;49.478;8.986;2022-09-06T14:00:51;35.70;34.00
32612;DHT22;19030;49.478;8.986;2022-09-06T14:02:53;35.60;34.30
32612;DHT22;19030;49.478;8.986;2022-09-06T14:04:54;35.80;34.00
32612;DHT22;19030;49.478;8.986;2022-09-06T14:06:56;35.60;33.40
32612;DHT22;19030;49.478;8.986;2022-09-06T14:08:57;35.20;34.00
32612;DHT22;19030;49.478;8.986;2022-09-06T14:10:57;35.10;35.90
32612;DHT22;19030;49.478;8.986;2022-09-06T14:12:58;34.90;34.60
32612;DHT22;19030;49.478;8.986;2022-09-06T14:14:59;35.10;35.50
32612;DHT22;19030;49.478;8.986;2022-09-06T14:17:00;35.00;35.30
32612;DHT22;19030;49.478;8.986;2022-09-06T14:19:01;34.70;35.50